sensor_id;sensor_type;location;lat;lon;timestamp;temperature;humidity
8591;DHT22;4333;48.322;14.340;2023-07-31T00:00:10;16.30;99.90
8591;DHT22;4333;48.322;14.340;2023-07-31T00:02:41;16.30;99.90
8591;DHT22;4333;48.322;14.340;2023-07-31T00:05:10;16.20;99.90
8591;DHT22;4333;48.322;14.340;2023-07-31T00:07:36;16.20;99.90
8591;DHT22;4333;48.322;14.340;2023-07-31T00:10:02;16.10;99.90
8591;DHT22;4333;48.322;14.340;2023-07-31T00:12:28;16.10;99.90
8591;DHT22;4333;48.322;14.340;2023-07-31T00:14:54;16.10;99.90
8591;DHT22;4333;48.322;14.340;2023-07-31T00:17:20;16.10;99.90
8591;DHT22;4333;48.322;14.340;2023-07-31T00:19:46;16.00;99.90
8591;DHT22;4333;48.322;14.340;2023-07-31T00:22:14;16.00;99.90
8591;DHT22;4333;48.322;14.340;2023-07-31T00:24:40;16.00;99.90
8591;DHT22;4333;48.322;14.340;2023-07-31T00:27:09;16.10;99.90
8591;DHT22;4333;48.322;14.340;2023-07-31T00:29:35;16.00;99.90
8591;DHT22;4333;48.322;14.340;2023-07-31T00:32:08;16.10;99.90
8591;DHT22;4333;48.322;14.340;2023-07-31T00:34:34;16.00;99.90
8591;DHT22;4333;48.322;14.340;2023-07-31T00:37:00;16.10;99.90
8591;DHT22;4333;48.322;14.340;2023-07-31T00:39:26;16.20;99.90
8591;DHT22;4333;48.322;14.340;2023-07-31T00:41:52;16.30;99.90
8591;DHT22;4333;48.322;14.340;2023-07-31T00:44:20;16.30;99.90
8591;DHT22;4333;48.322;14.340;2023-07-31T00:46:52;16.30;99.90
8591;DHT22;4333;48.322;14.340;2023-07-31T00:49:22;16.20;99.90
8591;DHT22;4333;48.322;14.340;2023-07-31T00:51:48;16.30;99.90
8591;DHT22;4333;48.322;14.340;2023-07-31T00:54:17;16.30;99.90
8591;DHT22;4333;48.322;14.340;2023-07-31T00:56:46;16.30;99.90
8591;DHT22;4333;48.322;14.340;2023-07-31T00:59:16;16.30;99.90
8591;DHT22;4333;48.322;14.340;2023-07-31T01:01:46;16.40;99.90
8591;DHT22;4333;48.322;14.340;2023-07-31T01:04:17;16.30;99.90
8591;DHT22;4333;48.322;14.340;2023-07-31T01:12:04;16.10;99.90
8591;DHT22;4333;48.322;14.340;2023-07-31T01:14:34;16.10;99.90
8591;DHT22;4333;48.322;14.340;2023-07-31T01:17:03;16.00;99.90
8591;DHT22;4333;48.322;14.340;2023-07-31T01:19:31;16.00;99.90
8591;DHT22;4333;48.322;14.340;2023-07-31T01:22:30;16.00;99.90
8591;DHT22;4333;48.322;14.340;2023-07-31T01:25:11;16.10;99.90
8591;DHT22;4333;48.322;14.340;2023-07-31T01:28:19;16.10;99.90
8591;DHT22;4333;48.322;14.340;2023-07-31T01:30:48;15.90;99.90
8591;DHT22;4333;48.322;14.340;2023-07-31T01:33:21;15.90;99.90
8591;DHT22;4333;48.322;14.340;2023-07-31T01:35:57;15.90;99.90
8591;DHT22;4333;48.322;14.340;2023-07-31T01:38:27;15.70;99.90
8591;DHT22;4333;48.322;14.340;2023-07-31T01:41:09;15.70;99.90
8591;DHT22;4333;48.322;14.340;2023-07-31T01:43:47;15.70;99.90
8591;DHT22;4333;48.322;14.340;2023-07-31T01:46:16;15.40;99.90
8591;DHT22;4333;48.322;14.340;2023-07-31T01:48:52;15.40;99.90
8591;DHT22;4333;48.322;14.340;2023-07-31T01:51:25;15.30;99.90
8591;DHT22;4333;48.322;14.340;2023-07-31T01:54:03;15.10;99.90
8591;DHT22;4333;48.322;14.340;2023-07-31T01:56:29;15.20;99.90
8591;DHT22;4333;48.322;14.340;2023-07-31T01:59:05;15.20;99.90
8591;DHT22;4333;48.322;14.340;2023-07-31T02:01:34;15.00;99.90
8591;DHT22;4333;48.322;14.340;2023-07-31T02:04:00;15.00;99.90
8591;DHT22;4333;48.322;14.340;2023-07-31T02:06:30;15.00;99.90
8591;DHT22;4333;48.322;14.340;2023-07-31T02:08:58;15.00;99.90
8591;DHT22;4333;48.322;14.340;2023-07-31T02:11:27;14.90;99.90
8591;DHT22;4333;48.322;14.340;2023-07-31T02:14:05;14.90;99.90
8591;DHT22;4333;48.322;14.340;2023-07-31T02:16:40;14.90;99.90
8591;DHT22;4333;48.322;14.340;2023-07-31T02:19:14;14.90;99.90
8591;DHT22;4333;48.322;14.340;2023-07-31T02:21:50;14.80;99.90
8591;DHT22;4333;48.322;14.340;2023-07-31T02:24:25;14.80;99.90
8591;DHT22;4333;48.322;14.340;2023-07-31T02:29:56;14.70;99.90
8591;DHT22;4333;48.322;14.340;2023-07-31T02:32:28;14.70;99.90
8591;DHT22;4333;48.322;14.340;2023-07-31T02:34:57;14.70;99.90
8591;DHT22;4333;48.322;14.340;2023-07-31T02:37:35;14.70;99.90
8591;DHT22;4333;48.322;14.340;2023-07-31T02:40:13;14.70;99.90
8591;DHT22;4333;48.322;14.340;2023-07-31T02:42:42;14.70;99.90
8591;DHT22;4333;48.322;14.340;2023-07-31T02:45:08;14.70;99.90
8591;DHT22;4333;48.322;14.340;2023-07-31T02:47:34;14.70;99.90
8591;DHT22;4333;48.322;14.340;2023-07-31T02:50:00;14.80;99.90
8591;DHT22;4333;48.322;14.340;2023-07-31T02:52:26;14.70;99.90
8591;DHT22;4333;48.322;14.340;2023-07-31T02:54:52;14.70;99.90
8591;DHT22;4333;48.322;14.340;2023-07-31T02:57:17;14.60;99.90
8591;DHT22;4333;48.322;14.340;2023-07-31T02:59:43;14.60;99.90
8591;DHT22;4333;48.322;14.340;2023-07-31T03:02:11;14.50;99.90
8591;DHT22;4333;48.322;14.340;2023-07-31T03:04:38;14.50;99.90
8591;DHT22;4333;48.322;14.340;2023-07-31T03:07:04;14.40;99.90
8591;DHT22;4333;48.322;14.340;2023-07-31T03:09:30;14.30;99.90
8591;DHT22;4333;48.322;14.340;2023-07-31T03:11:58;14.20;99.90
8591;DHT22;4333;48.322;14.340;2023-07-31T03:14:24;14.20;99.90
8591;DHT22;4333;48.322;14.340;2023-07-31T03:16:52;14.20;99.90
8591;DHT22;4333;48.322;14.340;2023-07-31T03:19:18;14.10;99.90
8591;DHT22;4333;48.322;14.340;2023-07-31T03:21:43;14.10;99.90
8591;DHT22;4333;48.322;14.340;2023-07-31T03:24:09;14.10;99.90
8591;DHT22;4333;48.322;14.340;2023-07-31T03:26:40;14.10;99.90
8591;DHT22;4333;48.322;14.340;2023-07-31T03:29:07;14.10;99.90
8591;DHT22;4333;48.322;14.340;2023-07-31T03:31:35;14.00;99.90
8591;DHT22;4333;48.322;14.340;2023-07-31T03:34:03;14.00;99.90
8591;DHT22;4333;48.322;14.340;2023-07-31T03:36:29;14.00;99.90
8591;DHT22;4333;48.322;14.340;2023-07-31T03:38:57;14.00;99.90
8591;DHT22;4333;48.322;14.340;2023-07-31T03:41:25;14.00;99.90
8591;DHT22;4333;48.322;14.340;2023-07-31T03:43:51;14.00;99.90
8591;DHT22;4333;48.322;14.340;2023-07-31T03:46:17;14.00;99.90
8591;DHT22;4333;48.322;14.340;2023-07-31T03:48:43;14.10;99.90
8591;DHT22;4333;48.322;14.340;2023-07-31T03:51:09;14.10;99.90
8591;DHT22;4333;48.322;14.340;2023-07-31T03:53:37;14.10;99.90
8591;DHT22;4333;48.322;14.340;2023-07-31T03:56:02;14.10;99.90
8591;DHT22;4333;48.322;14.340;2023-07-31T03:58:31;14.10;99.90
8591;DHT22;4333;48.322;14.340;2023-07-31T04:01:00;14.00;99.90
8591;DHT22;4333;48.322;14.340;2023-07-31T04:03:26;13.90;99.90
8591;DHT22;4333;48.322;14.340;2023-07-31T04:05:54;13.90;99.90
8591;DHT22;4333;48.322;14.340;2023-07-31T04:08:25;13.90;99.90
8591;DHT22;4333;48.322;14.340;2023-07-31T04:10:50;14.00;99.90
8591;DHT22;4333;48.322;14.340;2023-07-31T04:13:16;14.10;99.90
8591;DHT22;4333;48.322;14.340;2023-07-31T04:15:42;14.10;99.90
8591;DHT22;4333;48.322;14.340;2023-07-31T04:18:10;14.10;99.90
8591;DHT22;4333;48.322;14.340;2023-07-31T04:20:35;14.10;99.90
8591;DHT22;4333;48.322;14.340;2023-07-31T04:23:01;14.00;99.90
8591;DHT22;4333;48.322;14.340;2023-07-31T04:25:31;14.00;99.90
8591;DHT22;4333;48.322;14.340;2023-07-31T04:27:57;14.00;99.90
8591;DHT22;4333;48.322;14.340;2023-07-31T04:30:24;14.10;99.90
8591;DHT22;4333;48.322;14.340;2023-07-31T04:32:50;14.10;99.90
8591;DHT22;4333;48.322;14.340;2023-07-31T04:35:16;14.20;99.90
8591;DHT22;4333;48.322;14.340;2023-07-31T04:37:44;14.20;99.90
8591;DHT22;4333;48.322;14.340;2023-07-31T04:40:15;14.20;99.90
8591;DHT22;4333;48.322;14.340;2023-07-31T04:42:45;14.20;99.90
8591;DHT22;4333;48.322;14.340;2023-07-31T04:45:14;14.30;99.90
8591;DHT22;4333;48.322;14.340;2023-07-31T04:47:40;14.30;99.90
8591;DHT22;4333;48.322;14.340;2023-07-31T04:50:06;14.30;99.90
8591;DHT22;4333;48.322;14.340;2023-07-31T04:52:33;14.20;99.90
8591;DHT22;4333;48.322;14.340;2023-07-31T04:55:01;14.20;99.90
8591;DHT22;4333;48.322;14.340;2023-07-31T04:57:28;14.10;99.90
8591;DHT22;4333;48.322;14.340;2023-07-31T04:59:53;14.10;99.90
8591;DHT22;4333;48.322;14.340;2023-07-31T05:02:19;14.20;99.90
8591;DHT22;4333;48.322;14.340;2023-07-31T05:04:45;14.20;99.90
8591;DHT22;4333;48.322;14.340;2023-07-31T05:07:13;14.20;99.90
8591;DHT22;4333;48.322;14.340;2023-07-31T05:09:38;14.20;99.90
8591;DHT22;4333;48.322;14.340;2023-07-31T05:12:07;14.20;99.90
8591;DHT22;4333;48.322;14.340;2023-07-31T05:14:33;14.30;99.90
8591;DHT22;4333;48.322;14.340;2023-07-31T05:17:00;14.30;99.90
8591;DHT22;4333;48.322;14.340;2023-07-31T05:19:26;14.30;99.90
8591;DHT22;4333;48.322;14.340;2023-07-31T05:21:52;14.30;99.90
8591;DHT22;4333;48.322;14.340;2023-07-31T05:24:17;14.40;99.90
8591;DHT22;4333;48.322;14.340;2023-07-31T05:26:43;14.40;99.90
8591;DHT22;4333;48.322;14.340;2023-07-31T05:29:09;14.40;99.90
8591;DHT22;4333;48.322;14.340;2023-07-31T05:31:34;14.60;99.90
8591;DHT22;4333;48.322;14.340;2023-07-31T05:34:00;14.50;99.90
8591;DHT22;4333;48.322;14.340;2023-07-31T05:36:28;14.40;99.90
8591;DHT22;4333;48.322;14.340;2023-07-31T05:38:53;14.50;99.90
8591;DHT22;4333;48.322;14.340;2023-07-31T05:41:19;14.70;99.90
8591;DHT22;4333;48.322;14.340;2023-07-31T05:43:45;14.70;99.90
8591;DHT22;4333;48.322;14.340;2023-07-31T05:46:11;14.70;99.90
8591;DHT22;4333;48.322;14.340;2023-07-31T05:48:37;14.80;99.90
8591;DHT22;4333;48.322;14.340;2023-07-31T05:51:03;15.00;99.90
8591;DHT22;4333;48.322;14.340;2023-07-31T05:53:31;15.10;99.90
8591;DHT22;4333;48.322;14.340;2023-07-31T05:55:59;15.40;99.90
8591;DHT22;4333;48.322;14.340;2023-07-31T05:58:29;16.40;99.90
8591;DHT22;4333;48.322;14.340;2023-07-31T06:00:55;17.90;99.90
8591;DHT22;4333;48.322;14.340;2023-07-31T06:03:21;19.90;99.90
8591;DHT22;4333;48.322;14.340;2023-07-31T06:05:46;21.40;99.90
8591;DHT22;4333;48.322;14.340;2023-07-31T06:08:14;22.90;99.90
8591;DHT22;4333;48.322;14.340;2023-07-31T06:10:40;23.90;72.10
8591;DHT22;4333;48.322;14.340;2023-07-31T06:13:05;26.20;52.10
8591;DHT22;4333;48.322;14.340;2023-07-31T06:15:31;27.90;31.50
8591;DHT22;4333;48.322;14.340;2023-07-31T06:17:59;28.60;15.00
8591;DHT22;4333;48.322;14.340;2023-07-31T06:20:27;28.20;9.90
8591;DHT22;4333;48.322;14.340;2023-07-31T06:22:53;27.20;12.60
8591;DHT22;4333;48.322;14.340;2023-07-31T06:25:19;26.50;19.10
8591;DHT22;4333;48.322;14.340;2023-07-31T06:27:44;26.40;17.90
8591;DHT22;4333;48.322;14.340;2023-07-31T06:30:12;25.80;14.40
8591;DHT22;4333;48.322;14.340;2023-07-31T06:32:40;25.20;6.90
8591;DHT22;4333;48.322;14.340;2023-07-31T06:35:06;24.50;4.00
8591;DHT22;4333;48.322;14.340;2023-07-31T06:37:34;25.00;8.50
8591;DHT22;4333;48.322;14.340;2023-07-31T06:40:00;26.10;6.10
8591;DHT22;4333;48.322;14.340;2023-07-31T06:42:28;25.80;1.00
8591;DHT22;4333;48.322;14.340;2023-07-31T06:44:53;25.40;3.20
8591;DHT22;4333;48.322;14.340;2023-07-31T06:47:19;25.10;4.90
8591;DHT22;4333;48.322;14.340;2023-07-31T06:49:49;24.50;8.20
8591;DHT22;4333;48.322;14.340;2023-07-31T06:52:17;24.00;6.20
8591;DHT22;4333;48.322;14.340;2023-07-31T06:54:43;24.10;8.50
8591;DHT22;4333;48.322;14.340;2023-07-31T06:57:13;24.00;6.90
8591;DHT22;4333;48.322;14.340;2023-07-31T06:59:39;23.90;8.70
8591;DHT22;4333;48.322;14.340;2023-07-31T07:02:05;24.00;6.90
8591;DHT22;4333;48.322;14.340;2023-07-31T07:04:33;23.70;9.10
8591;DHT22;4333;48.322;14.340;2023-07-31T07:06:58;24.50;6.00
8591;DHT22;4333;48.322;14.340;2023-07-31T07:09:24;26.50;1.00
8591;DHT22;4333;48.322;14.340;2023-07-31T07:11:50;27.80;1.00
8591;DHT22;4333;48.322;14.340;2023-07-31T07:14:15;27.90;1.00
8591;DHT22;4333;48.322;14.340;2023-07-31T07:16:43;28.00;1.00
8591;DHT22;4333;48.322;14.340;2023-07-31T07:19:09;27.10;1.00
8591;DHT22;4333;48.322;14.340;2023-07-31T07:21:34;27.60;1.00
8591;DHT22;4333;48.322;14.340;2023-07-31T07:24:03;27.70;1.00
8591;DHT22;4333;48.322;14.340;2023-07-31T07:26:30;27.70;1.00
8591;DHT22;4333;48.322;14.340;2023-07-31T07:28:58;25.70;1.00
8591;DHT22;4333;48.322;14.340;2023-07-31T07:31:27;24.70;1.00
8591;DHT22;4333;48.322;14.340;2023-07-31T07:33:53;24.50;4.40
8591;DHT22;4333;48.322;14.340;2023-07-31T07:36:19;24.10;3.50
8591;DHT22;4333;48.322;14.340;2023-07-31T07:38:45;23.70;3.50
8591;DHT22;4333;48.322;14.340;2023-07-31T07:41:11;22.90;2.50
8591;DHT22;4333;48.322;14.340;2023-07-31T07:43:39;22.60;9.10
8591;DHT22;4333;48.322;14.340;2023-07-31T07:46:04;21.90;15.00
8591;DHT22;4333;48.322;14.340;2023-07-31T07:48:30;22.00;18.90
8591;DHT22;4333;48.322;14.340;2023-07-31T07:50:56;22.10;16.70
8591;DHT22;4333;48.322;14.340;2023-07-31T07:53:21;22.00;22.20
8591;DHT22;4333;48.322;14.340;2023-07-31T07:55:47;22.40;25.60
8591;DHT22;4333;48.322;14.340;2023-07-31T07:58:15;22.70;14.50
8591;DHT22;4333;48.322;14.340;2023-07-31T08:00:40;22.50;16.90
8591;DHT22;4333;48.322;14.340;2023-07-31T08:03:06;22.00;14.20
8591;DHT22;4333;48.322;14.340;2023-07-31T08:05:34;21.60;21.30
8591;DHT22;4333;48.322;14.340;2023-07-31T08:08:00;21.40;22.80
8591;DHT22;4333;48.322;14.340;2023-07-31T08:10:25;21.70;30.80
8591;DHT22;4333;48.322;14.340;2023-07-31T08:12:51;22.20;33.90
8591;DHT22;4333;48.322;14.340;2023-07-31T08:15:16;22.20;21.60
8591;DHT22;4333;48.322;14.340;2023-07-31T08:17:42;22.40;21.30
8591;DHT22;4333;48.322;14.340;2023-07-31T08:20:11;22.50;14.80
8591;DHT22;4333;48.322;14.340;2023-07-31T08:22:36;22.50;15.20
8591;DHT22;4333;48.322;14.340;2023-07-31T08:25:02;22.60;13.90
8591;DHT22;4333;48.322;14.340;2023-07-31T08:27:30;22.60;10.60
8591;DHT22;4333;48.322;14.340;2023-07-31T08:29:58;22.80;15.80
8591;DHT22;4333;48.322;14.340;2023-07-31T08:32:24;22.90;14.20
8591;DHT22;4333;48.322;14.340;2023-07-31T08:34:50;23.10;10.90
8591;DHT22;4333;48.322;14.340;2023-07-31T08:37:18;23.00;13.60
8591;DHT22;4333;48.322;14.340;2023-07-31T08:39:43;23.10;11.30
8591;DHT22;4333;48.322;14.340;2023-07-31T08:42:12;23.10;10.70
8591;DHT22;4333;48.322;14.340;2023-07-31T08:44:38;23.10;13.10
8591;DHT22;4333;48.322;14.340;2023-07-31T08:47:04;23.20;15.90
8591;DHT22;4333;48.322;14.340;2023-07-31T08:49:30;23.40;18.50
8591;DHT22;4333;48.322;14.340;2023-07-31T08:51:59;23.50;15.60
8591;DHT22;4333;48.322;14.340;2023-07-31T08:54:25;23.70;14.40
8591;DHT22;4333;48.322;14.340;2023-07-31T08:56:57;23.70;13.50
8591;DHT22;4333;48.322;14.340;2023-07-31T08:59:27;23.70;13.90
8591;DHT22;4333;48.322;14.340;2023-07-31T09:01:55;23.70;7.90
8591;DHT22;4333;48.322;14.340;2023-07-31T09:04:23;23.60;10.20
8591;DHT22;4333;48.322;14.340;2023-07-31T09:06:54;23.50;12.40
8591;DHT22;4333;48.322;14.340;2023-07-31T09:09:24;23.70;15.50
8591;DHT22;4333;48.322;14.340;2023-07-31T09:11:50;24.00;17.10
8591;DHT22;4333;48.322;14.340;2023-07-31T09:14:18;23.90;11.40
8591;DHT22;4333;48.322;14.340;2023-07-31T09:16:56;23.40;7.60
8591;DHT22;4333;48.322;14.340;2023-07-31T09:19:27;23.20;13.10
8591;DHT22;4333;48.322;14.340;2023-07-31T09:21:55;23.30;16.80
8591;DHT22;4333;48.322;14.340;2023-07-31T09:24:28;23.20;12.90
8591;DHT22;4333;48.322;14.340;2023-07-31T09:26:56;23.30;15.00
8591;DHT22;4333;48.322;14.340;2023-07-31T09:29:24;23.20;15.60
8591;DHT22;4333;48.322;14.340;2023-07-31T09:31:52;23.00;18.10
8591;DHT22;4333;48.322;14.340;2023-07-31T09:34:30;23.30;19.90
8591;DHT22;4333;48.322;14.340;2023-07-31T09:37:00;23.80;14.50
8591;DHT22;4333;48.322;14.340;2023-07-31T09:39:27;24.10;19.60
8591;DHT22;4333;48.322;14.340;2023-07-31T09:41:57;24.00;10.90
8591;DHT22;4333;48.322;14.340;2023-07-31T09:44:40;23.50;11.10
8591;DHT22;4333;48.322;14.340;2023-07-31T09:47:06;23.50;18.80
8591;DHT22;4333;48.322;14.340;2023-07-31T09:49:32;24.10;19.50
8591;DHT22;4333;48.322;14.340;2023-07-31T09:51:59;24.40;6.10
8591;DHT22;4333;48.322;14.340;2023-07-31T09:54:27;24.90;6.80
8591;DHT22;4333;48.322;14.340;2023-07-31T09:56:59;24.70;6.50
8591;DHT22;4333;48.322;14.340;2023-07-31T09:59:29;24.50;2.10
8591;DHT22;4333;48.322;14.340;2023-07-31T10:01:56;24.50;11.00
8591;DHT22;4333;48.322;14.340;2023-07-31T10:04:28;24.90;7.50
8591;DHT22;4333;48.322;14.340;2023-07-31T10:06:55;25.40;1.00
8591;DHT22;4333;48.322;14.340;2023-07-31T10:09:24;26.00;4.90
8591;DHT22;4333;48.322;14.340;2023-07-31T10:11:59;26.30;1.00
8591;DHT22;4333;48.322;14.340;2023-07-31T10:14:30;26.80;1.00
8591;DHT22;4333;48.322;14.340;2023-07-31T10:17:02;27.30;1.00
8591;DHT22;4333;48.322;14.340;2023-07-31T10:19:29;27.70;1.00
8591;DHT22;4333;48.322;14.340;2023-07-31T10:21:55;28.00;1.00
8591;DHT22;4333;48.322;14.340;2023-07-31T10:24:25;28.10;1.00
8591;DHT22;4333;48.322;14.340;2023-07-31T10:26:58;27.80;1.00
8591;DHT22;4333;48.322;14.340;2023-07-31T10:29:25;27.40;1.00
8591;DHT22;4333;48.322;14.340;2023-07-31T10:31:54;27.20;1.00
8591;DHT22;4333;48.322;14.340;2023-07-31T10:34:21;27.30;1.00
8591;DHT22;4333;48.322;14.340;2023-07-31T10:36:47;27.60;1.00
8591;DHT22;4333;48.322;14.340;2023-07-31T10:39:35;27.50;1.00
8591;DHT22;4333;48.322;14.340;2023-07-31T10:42:12;27.70;1.00
8591;DHT22;4333;48.322;14.340;2023-07-31T10:44:43;28.20;1.00
8591;DHT22;4333;48.322;14.340;2023-07-31T10:47:09;27.70;1.00
8591;DHT22;4333;48.322;14.340;2023-07-31T10:49:34;27.50;1.00
8591;DHT22;4333;48.322;14.340;2023-07-31T10:52:03;27.20;1.00
8591;DHT22;4333;48.322;14.340;2023-07-31T10:54:31;27.00;1.00
8591;DHT22;4333;48.322;14.340;2023-07-31T10:56:58;27.60;1.00
8591;DHT22;4333;48.322;14.340;2023-07-31T10:59:27;27.30;1.00
8591;DHT22;4333;48.322;14.340;2023-07-31T11:01:59;28.00;1.00
8591;DHT22;4333;48.322;14.340;2023-07-31T11:04:28;28.40;1.00
8591;DHT22;4333;48.322;14.340;2023-07-31T11:07:04;28.20;1.00
8591;DHT22;4333;48.322;14.340;2023-07-31T11:09:33;27.90;1.00
8591;DHT22;4333;48.322;14.340;2023-07-31T11:12:26;27.80;1.00
8591;DHT22;4333;48.322;14.340;2023-07-31T11:15:09;28.00;1.00
8591;DHT22;4333;48.322;14.340;2023-07-31T11:17:40;28.10;1.00
8591;DHT22;4333;48.322;14.340;2023-07-31T11:20:07;28.20;1.00
8591;DHT22;4333;48.322;14.340;2023-07-31T11:22:35;27.90;1.00
8591;DHT22;4333;48.322;14.340;2023-07-31T11:25:03;27.60;1.00
8591;DHT22;4333;48.322;14.340;2023-07-31T11:27:29;26.40;1.00
8591;DHT22;4333;48.322;14.340;2023-07-31T11:30:04;25.80;1.00
8591;DHT22;4333;48.322;14.340;2023-07-31T11:32:30;25.60;1.00
8591;DHT22;4333;48.322;14.340;2023-07-31T11:34:58;25.40;1.00
8591;DHT22;4333;48.322;14.340;2023-07-31T11:37:23;25.80;1.00
8591;DHT22;4333;48.322;14.340;2023-07-31T11:40:02;26.10;1.00
8591;DHT22;4333;48.322;14.340;2023-07-31T11:42:30;26.40;1.00
8591;DHT22;4333;48.322;14.340;2023-07-31T11:44:56;26.40;1.00
8591;DHT22;4333;48.322;14.340;2023-07-31T11:47:22;26.90;1.00
8591;DHT22;4333;48.322;14.340;2023-07-31T11:49:48;27.10;1.00
8591;DHT22;4333;48.322;14.340;2023-07-31T11:52:19;27.20;1.00
8591;DHT22;4333;48.322;14.340;2023-07-31T11:54:48;27.30;1.00
8591;DHT22;4333;48.322;14.340;2023-07-31T11:57:18;27.50;1.00
8591;DHT22;4333;48.322;14.340;2023-07-31T11:59:49;27.70;1.00
8591;DHT22;4333;48.322;14.340;2023-07-31T12:02:15;27.80;1.00
8591;DHT22;4333;48.322;14.340;2023-07-31T12:04:42;27.80;1.00
8591;DHT22;4333;48.322;14.340;2023-07-31T12:07:08;27.70;1.00
8591;DHT22;4333;48.322;14.340;2023-07-31T12:09:33;28.00;1.00
8591;DHT22;4333;48.322;14.340;2023-07-31T12:11:59;28.20;1.00
8591;DHT22;4333;48.322;14.340;2023-07-31T12:14:27;28.60;1.00
8591;DHT22;4333;48.322;14.340;2023-07-31T12:17:01;27.90;1.00
8591;DHT22;4333;48.322;14.340;2023-07-31T12:19:29;27.60;1.00
8591;DHT22;4333;48.322;14.340;2023-07-31T12:21:56;27.80;1.00
8591;DHT22;4333;48.322;14.340;2023-07-31T12:24:22;27.70;1.00
8591;DHT22;4333;48.322;14.340;2023-07-31T12:26:48;28.00;1.00
8591;DHT22;4333;48.322;14.340;2023-07-31T12:29:14;26.60;1.00
8591;DHT22;4333;48.322;14.340;2023-07-31T12:31:45;25.80;1.00
8591;DHT22;4333;48.322;14.340;2023-07-31T12:34:17;26.00;1.00
8591;DHT22;4333;48.322;14.340;2023-07-31T12:36:46;26.50;1.00
8591;DHT22;4333;48.322;14.340;2023-07-31T12:39:14;27.00;1.00
8591;DHT22;4333;48.322;14.340;2023-07-31T12:41:45;27.00;1.00
8591;DHT22;4333;48.322;14.340;2023-07-31T12:44:10;27.30;1.00
8591;DHT22;4333;48.322;14.340;2023-07-31T12:46:36;27.70;1.00
8591;DHT22;4333;48.322;14.340;2023-07-31T12:49:02;28.10;1.00
8591;DHT22;4333;48.322;14.340;2023-07-31T12:51:41;28.00;1.00
8591;DHT22;4333;48.322;14.340;2023-07-31T12:55:05;27.90;1.00
8591;DHT22;4333;48.322;14.340;2023-07-31T12:57:51;28.30;1.00
8591;DHT22;4333;48.322;14.340;2023-07-31T13:00:17;28.60;1.00
8591;DHT22;4333;48.322;14.340;2023-07-31T13:02:46;27.70;1.00
8591;DHT22;4333;48.322;14.340;2023-07-31T13:05:18;27.40;1.00
8591;DHT22;4333;48.322;14.340;2023-07-31T13:07:55;27.60;1.00
8591;DHT22;4333;48.322;14.340;2023-07-31T13:10:23;27.40;1.00
8591;DHT22;4333;48.322;14.340;2023-07-31T13:12:59;27.00;1.00
8591;DHT22;4333;48.322;14.340;2023-07-31T13:15:25;27.20;1.00
8591;DHT22;4333;48.322;14.340;2023-07-31T13:17:53;27.60;1.00
8591;DHT22;4333;48.322;14.340;2023-07-31T13:20:19;28.20;1.00
8591;DHT22;4333;48.322;14.340;2023-07-31T13:26:25;28.40;1.00
8591;DHT22;4333;48.322;14.340;2023-07-31T13:28:51;27.50;1.00
8591;DHT22;4333;48.322;14.340;2023-07-31T13:31:17;27.70;1.00
8591;DHT22;4333;48.322;14.340;2023-07-31T13:33:43;27.00;1.00
8591;DHT22;4333;48.322;14.340;2023-07-31T13:36:08;26.40;1.00
8591;DHT22;4333;48.322;14.340;2023-07-31T13:38:41;26.10;1.00
8591;DHT22;4333;48.322;14.340;2023-07-31T13:41:07;26.50;1.00
8591;DHT22;4333;48.322;14.340;2023-07-31T13:43:35;27.10;1.00
8591;DHT22;4333;48.322;14.340;2023-07-31T13:46:01;27.50;1.00
8591;DHT22;4333;48.322;14.340;2023-07-31T13:48:34;27.60;1.00
8591;DHT22;4333;48.322;14.340;2023-07-31T13:51:02;27.50;1.00
8591;DHT22;4333;48.322;14.340;2023-07-31T13:53:30;27.70;1.00
8591;DHT22;4333;48.322;14.340;2023-07-31T13:56:29;27.90;1.00
8591;DHT22;4333;48.322;14.340;2023-07-31T14:01:31;28.40;1.00
8591;DHT22;4333;48.322;14.340;2023-07-31T14:03:59;28.40;1.00
8591;DHT22;4333;48.322;14.340;2023-07-31T14:06:27;28.50;1.00
8591;DHT22;4333;48.322;14.340;2023-07-31T14:08:53;28.60;1.00
8591;DHT22;4333;48.322;14.340;2023-07-31T14:11:19;28.50;1.00
8591;DHT22;4333;48.322;14.340;2023-07-31T14:13:44;28.60;1.00
8591;DHT22;4333;48.322;14.340;2023-07-31T14:16:10;28.50;1.00
8591;DHT22;4333;48.322;14.340;2023-07-31T14:18:36;28.10;1.00
8591;DHT22;4333;48.322;14.340;2023-07-31T14:21:01;28.30;1.00
8591;DHT22;4333;48.322;14.340;2023-07-31T14:23:27;28.20;1.00
8591;DHT22;4333;48.322;14.340;2023-07-31T14:25:53;28.40;1.00
8591;DHT22;4333;48.322;14.340;2023-07-31T14:28:18;28.40;1.00
8591;DHT22;4333;48.322;14.340;2023-07-31T14:30:44;28.50;1.00
8591;DHT22;4333;48.322;14.340;2023-07-31T14:33:12;28.60;1.00
8591;DHT22;4333;48.322;14.340;2023-07-31T14:35:40;28.70;1.00
8591;DHT22;4333;48.322;14.340;2023-07-31T14:38:08;28.10;1.00
8591;DHT22;4333;48.322;14.340;2023-07-31T14:40:36;27.90;1.00
8591;DHT22;4333;48.322;14.340;2023-07-31T14:43:06;27.80;1.00
8591;DHT22;4333;48.322;14.340;2023-07-31T14:45:31;28.00;1.00
8591;DHT22;4333;48.322;14.340;2023-07-31T14:47:57;27.50;1.00
8591;DHT22;4333;48.322;14.340;2023-07-31T14:50:23;27.70;1.00
8591;DHT22;4333;48.322;14.340;2023-07-31T14:52:49;27.90;1.00
8591;DHT22;4333;48.322;14.340;2023-07-31T14:55:15;28.00;1.00
8591;DHT22;4333;48.322;14.340;2023-07-31T14:57:41;28.10;1.00
8591;DHT22;4333;48.322;14.340;2023-07-31T15:00:07;28.10;1.00
8591;DHT22;4333;48.322;14.340;2023-07-31T15:02:39;28.00;1.00
8591;DHT22;4333;48.322;14.340;2023-07-31T15:05:05;28.10;1.00
8591;DHT22;4333;48.322;14.340;2023-07-31T15:07:34;28.20;1.00
8591;DHT22;4333;48.322;14.340;2023-07-31T15:10:02;28.40;1.00
8591;DHT22;4333;48.322;14.340;2023-07-31T15:12:31;28.60;1.00
8591;DHT22;4333;48.322;14.340;2023-07-31T15:14:56;28.00;1.00
8591;DHT22;4333;48.322;14.340;2023-07-31T15:17:22;27.50;1.00
8591;DHT22;4333;48.322;14.340;2023-07-31T15:19:48;27.70;1.00
8591;DHT22;4333;48.322;14.340;2023-07-31T15:22:14;28.10;1.00
8591;DHT22;4333;48.322;14.340;2023-07-31T15:24:42;28.40;1.00
8591;DHT22;4333;48.322;14.340;2023-07-31T15:27:07;28.60;1.00
8591;DHT22;4333;48.322;14.340;2023-07-31T15:29:34;28.60;1.00
8591;DHT22;4333;48.322;14.340;2023-07-31T15:32:05;28.60;1.00
8591;DHT22;4333;48.322;14.340;2023-07-31T15:34:33;28.70;1.00
8591;DHT22;4333;48.322;14.340;2023-07-31T15:37:01;28.70;1.00
8591;DHT22;4333;48.322;14.340;2023-07-31T15:39:26;28.70;1.00
8591;DHT22;4333;48.322;14.340;2023-07-31T15:41:52;28.60;1.00
8591;DHT22;4333;48.322;14.340;2023-07-31T15:44:18;28.70;1.00
8591;DHT22;4333;48.322;14.340;2023-07-31T15:46:44;28.30;1.00
8591;DHT22;4333;48.322;14.340;2023-07-31T15:49:10;27.70;1.00
8591;DHT22;4333;48.322;14.340;2023-07-31T15:51:38;27.30;1.00
8591;DHT22;4333;48.322;14.340;2023-07-31T15:54:04;27.10;1.00
8591;DHT22;4333;48.322;14.340;2023-07-31T15:56:34;26.80;1.00
8591;DHT22;4333;48.322;14.340;2023-07-31T15:59:01;26.70;1.00
8591;DHT22;4333;48.322;14.340;2023-07-31T16:01:29;27.20;1.00
8591;DHT22;4333;48.322;14.340;2023-07-31T16:03:55;27.50;1.00
8591;DHT22;4333;48.322;14.340;2023-07-31T16:06:23;27.60;1.00
8591;DHT22;4333;48.322;14.340;2023-07-31T16:08:48;27.70;1.00
8591;DHT22;4333;48.322;14.340;2023-07-31T16:11:14;27.40;1.00
8591;DHT22;4333;48.322;14.340;2023-07-31T16:13:42;27.20;1.00